Flight Track Log - Related Links

Times and Time Zones

All times are in EDT time to prevent confusion due to time zone crossing. See the N902FR flight status page for this flight to view local times or setup timezone preferences in your user account.


Time Position Orientation Groundspeed Altitude Reporting Facility
EDT Latitude Longitude Course Direction KTS MPH feet Rate Location/Type
Mon 06:43:47 PM 39.8500 -104.7500 288° West 192 221 6,200  Level Denver TRACON
Mon 06:44:53 PM 39.8667 -104.8167 349° North 229 264 7,500 1,429 Climbing Denver TRACON
Mon 06:45:53 PM 39.9333 -104.8333 351° North 282 325 9,200 2,421 Climbing Denver TRACON
Mon 06:46:47 PM 40.0167 -104.8500 343° North 286 329 12,100 2,933 Climbing Denver TRACON
Mon 06:48:08 PM 40.1042 -104.8842 347° North 255 293 15,800 2,083 Climbing Denver Center
Mon 06:49:11 PM 40.1911 -104.9094 348° North 311 358 17,100 1,776 Climbing Denver Center
Mon 06:50:13 PM 40.2786 -104.9333 348° North 322 371 19,500 2,016 Climbing Denver Center
Mon 06:51:16 PM 40.3703 -104.9594 348° North 317 365 21,300 1,344 Climbing Denver Center
Mon 06:52:18 PM 40.4681 -104.9869 348° North 362 417 22,300 1,344 Climbing Denver Center
Mon 06:53:21 PM 40.5792 -105.0186 348° North 374 430 24,100 1,536 Climbing Denver Center
Mon 06:54:23 PM 40.6806 -105.0475 342° North 386 444 25,500 1,344 Climbing Denver Center
Mon 06:55:26 PM 40.7853 -105.0917 320° Northwest 393 452 26,900 1,392 Climbing Denver Center
Mon 06:56:28 PM 40.8875 -105.2036 319° Northwest 410 472 28,400 1,248 Climbing Denver Center
Mon 06:57:31 PM 40.9750 -105.3036 319° Northwest 411 473 29,500 1,152 Climbing Denver Center
Mon 06:58:33 PM 41.0700 -105.4119 319° Northwest 419 482 30,800 1,104 Climbing Denver Center
Mon 06:59:36 PM 41.1572 -105.5114 319° Northwest 426 490 31,800 1,344 Climbing Denver Center
Mon 07:00:38 PM 41.2572 -105.6283 316° Northwest 428 493 33,600 1,355 Climbing Denver Center
Mon 07:01:40 PM 41.3375 -105.7331 305° West 427 491 34,600 960 Climbing Denver Center
Mon 07:02:43 PM 41.4097 -105.8722 302° West 416 479 35,600 912 Climbing Denver Center
Mon 07:03:45 PM 41.4683 -105.9978 302° West 416 479 36,500 960 Climbing Denver Center
Mon 07:04:48 PM 41.5350 -106.1411 302° West 410 472 37,600 672 Climbing Denver Center
Mon 07:05:50 PM 41.5922 -106.2631 302° West 406 467 37,900 194 Climbing Denver Center
Mon 07:06:52 PM 41.6586 -106.4069 302° West 407 468 38,000 48 Climbing Denver Center
Mon 07:07:55 PM 41.7208 -106.5406 302° West 407 468 38,000  Level Denver Center
Mon 07:08:57 PM 41.7789 -106.6675 301° West 414 476 38,000  Level Denver Center
Mon 07:10:00 PM 41.8458 -106.8150 300° West 415 478 38,000  Level Denver Center
Mon 07:10:45 PM 41.8819 -106.8981 301° West 413 475 38,000  Level Salt Lake Center
Mon 07:11:47 PM 41.9489 -107.0453 302° West 414 476 38,000  Level Salt Lake Center
Mon 07:12:49 PM 42.0069 -107.1725 298° West 416 479 38,000  Level Salt Lake Center
Mon 07:13:52 PM 42.0658 -107.3250 297° West 415 478 38,000  Level Salt Lake Center
Mon 07:14:54 PM 42.1153 -107.4567 297° West 413 475 38,000  Level Salt Lake Center
Mon 07:15:56 PM 42.1733 -107.6097 298° West 413 475 38,000  Level Salt Lake Center
Mon 07:16:58 PM 42.2242 -107.7411 297° West 414 476 38,000  Level Salt Lake Center
Mon 07:18:00 PM 42.2828 -107.8964 297° West 416 479 38,000  Level Salt Lake Center
Mon 07:19:02 PM 42.3331 -108.0294 297° West 416 479 38,000  Level Salt Lake Center
Mon 07:20:04 PM 42.3911 -108.1847 300° West 416 479 38,000  Level Salt Lake Center
Mon 07:21:06 PM 42.4461 -108.3153 300° West 418 481 38,000  Level Salt Lake Center
Mon 07:22:08 PM 42.5103 -108.4664 299° West 416 479 38,000  Level Salt Lake Center
Mon 07:23:10 PM 42.5636 -108.5981 299° West 417 480 38,000  Level Salt Lake Center
Mon 07:24:13 PM 42.6256 -108.7472 300° West 412 474 38,000  Level Salt Lake Center
Mon 07:25:15 PM 42.6783 -108.8728 299° West 407 468 38,000 48 Level Salt Lake Center
Mon 07:26:17 PM 42.7417 -109.0258 299° West 412 474 38,100 48 Climbing Salt Lake Center
Mon 07:27:19 PM 42.7967 -109.1614 299° West 421 484 38,100  Level Salt Lake Center
Mon 07:28:21 PM 42.8611 -109.3175 298° West 425 489 38,100 -48 Level Salt Lake Center
Mon 07:29:23 PM 42.9147 -109.4528 299° West 424 488 38,000 -48 Descending Salt Lake Center
Mon 07:30:26 PM 42.9781 -109.6108 299° West 419 482 38,000  Level Salt Lake Center
Mon 07:31:28 PM 43.0311 -109.7414 298° West 414 476 38,000  Level Salt Lake Center
Mon 07:32:30 PM 43.0922 -109.8958 298° West 411 473 38,000  Level Salt Lake Center
Mon 07:33:32 PM 43.1425 -110.0247 299° West 405 466 38,000  Level Salt Lake Center
Mon 07:34:35 PM 43.2022 -110.1750 299° West 402 463 38,000  Level Salt Lake Center
Mon 07:35:37 PM 43.2514 -110.2978 298° West 403 464 38,000  Level Salt Lake Center
Mon 07:36:39 PM 43.3106 -110.4508 299° West 406 467 38,000  Level Salt Lake Center
Mon 07:37:42 PM 43.3653 -110.5886 298° West 407 468 38,000  Level Salt Lake Center
Mon 07:38:44 PM 43.4161 -110.7194 298° West 407 468 38,000  Level Salt Lake Center
Mon 07:39:46 PM 43.4753 -110.8725 298° West 406 467 38,000  Level Salt Lake Center
Mon 07:40:48 PM 43.5256 -111.0056 298° West 408 470 38,000  Level Salt Lake Center
Mon 07:41:51 PM 43.5839 -111.1578 298° West 404 465 38,000  Level Salt Lake Center
Mon 07:42:53 PM 43.6342 -111.2886 298° West 402 463 38,000  Level Salt Lake Center
Mon 07:43:55 PM 43.6922 -111.4406 297° West 401 461 38,000  Level Salt Lake Center
Mon 07:44:58 PM 43.7406 -111.5739 298° West 402 463 38,000  Level Salt Lake Center
Mon 07:46:00 PM 43.7992 -111.7281 297° West 404 465 38,000  Level Salt Lake Center
Mon 07:47:02 PM 43.8483 -111.8603 297° West 403 464 38,000  Level Salt Lake Center
Mon 07:48:04 PM 43.9053 -112.0150 297° West 403 464 38,000  Level Salt Lake Center
Mon 07:49:07 PM 43.9542 -112.1458 297° West 400 460 38,000  Level Salt Lake Center
Mon 07:50:09 PM 44.0108 -112.3003 297° West 400 460 38,000  Level Salt Lake Center
Mon 07:51:11 PM 44.0589 -112.4328 297° West 400 460 38,000  Level Salt Lake Center
Mon 07:52:14 PM 44.1164 -112.5908 297° West 406 467 38,000  Level Salt Lake Center
Mon 07:53:16 PM 44.1642 -112.7228 296° West 401 461 38,000  Level Salt Lake Center
Mon 07:54:18 PM 44.2183 -112.8756 296° West 396 456 38,000  Level Salt Lake Center
Mon 07:55:21 PM 44.2647 -113.0069 297° West 394 453 38,000  Level Salt Lake Center
Mon 07:56:23 PM 44.3203 -113.1622 297° West 397 457 38,000  Level Salt Lake Center
Mon 07:57:25 PM 44.3681 -113.2958 296° West 399 459 38,000 48 Level Salt Lake Center
Mon 07:58:28 PM 44.4239 -113.4575 297° West 409 471 38,100  Climbing Salt Lake Center
Mon 07:59:30 PM 44.4728 -113.5919 296° West 406 467 38,000 48 Descending Salt Lake Center
Mon 08:00:32 PM 44.5261 -113.7458 296° West 400 460 38,200 387 Climbing Salt Lake Center
Mon 08:01:34 PM 44.5714 -113.8772 296° West 395 455 38,800 384 Climbing Salt Lake Center
Mon 08:02:37 PM 44.6242 -114.0292 296° West 392 451 39,000 96 Climbing Salt Lake Center
Mon 08:03:39 PM 44.6703 -114.1603 296° West 392 451 39,000  Level Salt Lake Center
Mon 08:05:43 PM 44.7686 -114.4514 295° West 398 458 39,000  Level Salt Lake Center
Mon 08:06:46 PM 44.8208 -114.6089 295° West 399 459 39,000  Level Salt Lake Center
Mon 08:07:48 PM 44.8658 -114.7425 295° West 397 457 39,000  Level Salt Lake Center
Mon 08:08:50 PM 44.9183 -114.8994 295° West 397 457 39,000  Level Salt Lake Center
Mon 08:09:52 PM 44.9622 -115.0328 295° West 394 453 39,000  Level Salt Lake Center
Mon 08:10:54 PM 45.0133 -115.1892 295° West 395 455 39,000  Level Salt Lake Center
Mon 08:11:57 PM 45.0578 -115.3233 295° West 395 455 39,000  Level Salt Lake Center
Mon 08:12:59 PM 45.1094 -115.4836 295° West 400 460 39,000  Level Salt Lake Center
Mon 08:14:01 PM 45.1533 -115.6200 295° West 400 460 39,000  Level Salt Lake Center
Mon 08:15:03 PM 45.2050 -115.7803 294° West 401 461 39,000  Level Salt Lake Center
Mon 08:16:05 PM 45.2492 -115.9192 294° West 403 464 39,000  Level Salt Lake Center
Mon 08:17:13 PM 45.3011 -116.0831 294° West 405 466 39,000  Level Seattle Center
Mon 08:18:15 PM 45.3533 -116.2475 294° West 408 470 39,000 51 Level Seattle Center
Mon 08:19:11 PM 45.3894 -116.3639 294° West 409 471 39,100  Climbing Salt Lake Center
Mon 08:20:13 PM 45.4411 -116.5278 294° West 408 470 39,000 -48 Descending Salt Lake Center
Mon 08:21:15 PM 45.4847 -116.6689 294° West 408 470 39,000  Level Salt Lake Center
Mon 08:22:19 PM 45.5364 -116.8372 294° West 412 474 39,000  Level Seattle Center
Mon 08:23:19 PM 45.5806 -116.9792 294° West 412 474 39,000  Level Salt Lake Center
Mon 08:24:21 PM 45.6317 -117.1472 293° West 413 475 39,000  Level Salt Lake Center
Mon 08:25:23 PM 45.6758 -117.2969 294° West 416 479 39,000  Level Seattle Center
Mon 08:26:24 PM 45.7228 -117.4497 293° West 419 482 39,000  Level Seattle Center
Mon 08:27:26 PM 45.7683 -117.6028 294° West 419 482 39,000  Level Seattle Center
Mon 08:28:27 PM 45.8144 -117.7542 293° West 417 480 39,000 -49 Level Seattle Center
Mon 08:29:28 PM 45.8592 -117.9069 293° West 416 479 38,900 -49 Descending Seattle Center
Mon 08:30:29 PM 45.9033 -118.0581 293° West 413 475 38,900  Level Seattle Center
Mon 08:31:30 PM 45.9478 -118.2108 293° West 415 478 38,900 49 Level Seattle Center
Mon 08:32:32 PM 46.0014 -118.3969 293° West 418 481 39,000 49 Climbing Seattle Center
Mon 08:33:33 PM 46.0431 -118.5400 293° West 421 484 39,000  Level Seattle Center
Mon 08:34:34 PM 46.0878 -118.6944 292° West 422 486 39,000  Level Seattle Center
Mon 08:35:35 PM 46.1306 -118.8483 292° West 420 483 39,000  Level Seattle Center
Mon 08:36:37 PM 46.1831 -119.0344 292° West 422 486 39,000  Level Seattle Center
Mon 08:37:38 PM 46.2267 -119.1894 292° West 421 484 39,000  Level Seattle Center
Mon 08:38:39 PM 46.2708 -119.3458 292° West 423 487 39,000 -344 Level Seattle Center
Mon 08:39:40 PM 46.3153 -119.5061 292° West 430 495 38,300 -780 Descending Seattle Center
Mon 08:40:42 PM 46.3586 -119.6633 292° West 428 493 37,400 -927 Descending Seattle Center
Mon 08:41:43 PM 46.4022 -119.8228 292° West 430 495 36,400 -1,672 Descending Seattle Center
Mon 08:42:44 PM 46.4464 -119.9850 291° West 435 501 34,000 -3,024 Descending Seattle Center
Mon 08:43:46 PM 46.4994 -120.1861 291° West 445 512 30,200 -2,634 Descending Seattle Center
Mon 08:44:47 PM 46.5442 -120.3525 296° West 448 516 28,600 -1,328 Descending Seattle Center
Mon 08:45:48 PM 46.5928 -120.4975 304° West 415 478 27,500 -1,131 Descending Seattle Center
Mon 08:46:49 PM 46.6522 -120.6261 306° West 393 452 26,300 -1,122 Descending Seattle Center
Mon 08:47:51 PM 46.7114 -120.7442 305° West 372 428 25,200 -1,415 Descending Seattle Center
Mon 08:48:52 PM 46.7683 -120.8628 304° West 364 419 23,400 -1,574 Descending Seattle Center
Mon 08:49:53 PM 46.8225 -120.9789 339° North 355 409 22,000 -1,561 Descending Seattle Center
Mon 08:50:55 PM 46.9261 -121.0378 355° North 369 425 20,200 -1,805 Descending Seattle Center
Mon 08:51:56 PM 47.0256 -121.0500 283° West 365 420 18,300 -1,574 Descending Seattle Center
Mon 08:52:57 PM 47.0403 -121.1444 215° Southwest 273 314 17,000 -639 Descending Seattle Center
Mon 08:53:58 PM 46.9792 -121.2072 289° West 257 296 17,000  Level Seattle Center
Mon 08:55:00 PM 47.0036 -121.3103 308° West 304 350 17,000  Level Seattle Center
Mon 08:55:35 PM 47.0400 -121.3797 303° West 302 348 17,000 -450 Level Seattle Center
Mon 08:57:00 PM 47.1011 -121.5183 299° West 294 338 16,100 -1,068 Descending Seattle Center
Mon 08:58:01 PM 47.1386 -121.6181 299° West 283 326 14,400 -1,785 Descending Seattle Center
Mon 08:59:01 PM 47.1767 -121.7211 299° West 285 328 12,500 -1,289 Descending Seattle Center
Mon 09:00:02 PM 47.2189 -121.8314 304° West 287 330 11,800 -1,131 Descending Seattle Center
Mon 09:01:03 PM 47.2636 -121.9275 304° West 283 326 10,200 -857 Descending Seattle Center
Mon 09:02:08 PM 47.3042 -122.0164 304° West 281 323 10,000 -95 Descending Seattle Center
Mon 09:03:09 PM 47.3481 -122.1133 322° Northwest 284 327 10,000 -51 Level Seattle Center
Mon 09:04:05 PM 47.4097 -122.1836 358° North 273 314 9,900 -718 Descending Seattle Center
Mon 09:05:06 PM 47.4814 -122.1864 360° North 265 305 8,600 -1,359 Descending Seattle Center
Mon 09:06:13 PM 47.5639 -122.1867 353° North 256 295 7,000 -1,279 Descending Seattle Center
Mon 09:07:08 PM 47.6222 -122.1969 296° West 225 259 6,000 -1,461 Descending Seattle Center
Mon 09:08:08 PM 47.6406 -122.2525 241° Southwest 163 188 4,200 -1,163 Descending Seattle Center
Mon 09:09:17 PM 47.6194 -122.3092 183° South 163 188 3,500 -672 Descending Seattle Center
Mon 09:10:04 PM 47.5867 -122.3119 179° South 159 183 2,900 -833 Descending Seattle Center
Mon 09:11:05 PM 47.5419 -122.3106 180° South 160 184 2,000 -843 Descending Seattle Center
Mon 09:12:05 PM 47.4997 -122.3108 180° South 150 173 1,200 -744 Descending Seattle Center
Mon 09:13:06 PM 47.4642 -122.3108 180° South 122 140 500 -689 Descending Seattle Center

Login

Don't have an account? Register now (free) for customized features, flight alerts, and more!